createdAt,value
2018-11-11T00:01:14.637Z,30.47
2018-11-11T00:03:44.680Z,28.50
2018-11-11T00:06:14.748Z,28.60
2018-11-11T00:08:44.771Z,29.67
2018-11-11T00:11:14.755Z,27.93
2018-11-11T00:13:44.768Z,27.63
2018-11-11T00:16:14.753Z,30.47
2018-11-11T00:18:44.818Z,32.70
2018-11-11T00:21:14.763Z,28.97
2018-11-11T00:23:44.750Z,28.10
2018-11-11T00:26:14.806Z,32.07
2018-11-11T00:28:44.888Z,28.60
2018-11-11T00:31:14.860Z,31.40
2018-11-11T00:33:44.868Z,28.00
2018-11-11T00:36:14.877Z,28.13
2018-11-11T00:38:44.884Z,29.27
2018-11-11T00:41:14.887Z,32.80
2018-11-11T00:43:44.873Z,31.10
2018-11-11T00:46:14.902Z,32.67
2018-11-11T00:48:45.010Z,31.43
2018-11-11T00:51:15.022Z,30.87
2018-11-11T00:53:44.940Z,33.60
2018-11-11T00:56:14.906Z,29.90
2018-11-11T00:58:44.900Z,29.97
2018-11-11T01:01:14.936Z,31.30
2018-11-11T01:03:44.983Z,34.70
2018-11-11T01:06:14.937Z,29.03
2018-11-11T01:08:45.028Z,32.27
2018-11-11T01:11:15.036Z,33.23
2018-11-11T01:13:45.072Z,32.50
2018-11-11T01:16:15.100Z,34.70
2018-11-11T01:18:45.134Z,31.03
2018-11-11T01:21:15.246Z,31.17
2018-11-11T01:23:45.178Z,32.73
2018-11-11T01:26:15.207Z,31.43
2018-11-11T01:28:45.154Z,29.77
2018-11-11T01:31:15.167Z,33.03
2018-11-11T01:33:45.264Z,33.07
2018-11-11T01:36:15.287Z,31.77
2018-11-11T01:38:45.296Z,34.20
2018-11-11T01:41:15.310Z,33.97
2018-11-11T01:43:45.296Z,32.63
2018-11-11T01:46:15.413Z,28.33
2018-11-11T01:48:45.400Z,34.37
2018-11-11T01:51:15.413Z,30.90
2018-11-11T01:53:45.400Z,31.40
2018-11-11T01:56:15.354Z,31.23
2018-11-11T01:58:45.352Z,31.17
2018-11-11T02:01:15.254Z,31.43
2018-11-11T02:03:45.167Z,34.43
2018-11-11T02:06:15.148Z,33.37
2018-11-11T02:08:45.266Z,34.23
2018-11-11T02:11:15.233Z,32.63
2018-11-11T02:13:45.251Z,35.70
2018-11-11T02:16:15.209Z,37.23
2018-11-11T02:18:45.274Z,33.63
2018-11-11T02:21:15.429Z,36.30
2018-11-11T02:23:45.313Z,33.93
2018-11-11T02:26:15.064Z,35.50
2018-11-11T02:28:45.077Z,34.57
2018-11-11T02:31:15.116Z,36.03
2018-11-11T02:33:45.100Z,38.40
2018-11-11T02:36:14.994Z,35.33
2018-11-11T02:38:44.950Z,36.83
2018-11-11T02:41:14.996Z,37.60
2018-11-11T02:43:44.984Z,37.70
2018-11-11T02:46:14.905Z,35.63
2018-11-11T02:48:44.987Z,35.07
2018-11-11T02:51:14.941Z,36.60
2018-11-11T02:53:44.881Z,36.83
2018-11-11T02:56:14.984Z,38.60
2018-11-11T02:58:45.073Z,35.57
2018-11-11T03:01:15.046Z,35.03
2018-11-11T03:03:45.098Z,37.87
2018-11-11T03:06:14.986Z,37.40
2018-11-11T03:08:45.022Z,37.03
2018-11-11T03:11:15.059Z,36.40
2018-11-11T03:13:45.095Z,36.03
2018-11-11T03:16:15.000Z,34.33
2018-11-11T03:18:45.090Z,33.20
2018-11-11T03:21:15.095Z,39.70
2018-11-11T03:23:45.187Z,34.33
2018-11-11T03:26:15.123Z,37.90
2018-11-11T03:28:45.111Z,40.17
2018-11-11T03:31:15.137Z,34.80
2018-11-11T03:33:45.070Z,37.93
2018-11-11T03:36:15.049Z,40.63
2018-11-11T03:38:45.315Z,37.17
2018-11-11T03:41:15.396Z,37.07
2018-11-11T03:43:45.412Z,39.83
2018-11-11T03:46:15.502Z,39.70
2018-11-11T03:48:45.579Z,37.13
2018-11-11T03:51:15.603Z,43.90
2018-11-11T03:53:46.677Z,45.77
2018-11-11T03:56:16.721Z,42.80
2018-11-11T03:58:46.848Z,40.87
2018-11-11T04:01:16.822Z,41.53
2018-11-11T04:03:46.917Z,42.10
2018-11-11T04:06:16.970Z,39.50
2018-11-11T04:08:47.063Z,45.47
2018-11-11T04:11:17.071Z,46.63
2018-11-11T04:13:47.137Z,46.67
2018-11-11T04:16:17.091Z,48.90
2018-11-11T04:18:47.155Z,44.10
2018-11-11T04:21:17.197Z,45.03
2018-11-11T04:23:47.122Z,47.63
2018-11-11T04:26:17.178Z,46.07
2018-11-11T04:28:47.222Z,51.50
2018-11-11T04:31:17.299Z,48.33
2018-11-11T04:33:47.350Z,51.33
2018-11-11T04:36:17.464Z,56.50
2018-11-11T04:38:47.408Z,52.50
2018-11-11T04:41:17.415Z,53.00
2018-11-11T04:43:47.431Z,58.10
2018-11-11T04:46:17.449Z,59.17
2018-11-11T04:48:47.406Z,61.93
2018-11-11T04:51:17.442Z,52.93
2018-11-11T04:53:47.483Z,52.00
2018-11-11T04:56:17.605Z,53.87
2018-11-11T04:58:47.565Z,61.43
2018-11-11T05:01:17.601Z,54.97
2018-11-11T05:03:47.531Z,57.27
2018-11-11T05:06:17.556Z,51.97
2018-11-11T05:08:47.717Z,56.57
2018-11-11T05:11:17.693Z,56.50
2018-11-11T05:13:47.705Z,58.37
2018-11-11T05:16:17.677Z,56.67
2018-11-11T05:18:47.714Z,56.07
2018-11-11T05:21:17.684Z,56.70
2018-11-11T05:23:47.633Z,50.20
2018-11-11T05:26:17.600Z,48.47
2018-11-11T05:28:47.646Z,59.23
2018-11-11T05:31:17.626Z,51.93
2018-11-11T05:33:47.613Z,57.73
2018-11-11T05:36:17.644Z,56.73
2018-11-11T05:38:47.699Z,58.50
2018-11-11T05:41:17.707Z,56.17
2018-11-11T05:43:47.757Z,58.57
2018-11-11T05:46:17.669Z,52.90
2018-11-11T05:48:47.669Z,59.03
2018-11-11T05:51:17.654Z,56.33
2018-11-11T05:53:47.760Z,56.80
2018-11-11T05:56:17.797Z,56.50
2018-11-11T05:58:47.856Z,60.03
2018-11-11T06:01:17.864Z,53.03
2018-11-11T06:03:47.839Z,53.40
2018-11-11T06:06:17.866Z,54.20
2018-11-11T06:08:47.915Z,55.87
2018-11-11T06:11:17.938Z,53.27
2018-11-11T06:13:47.991Z,58.30
2018-11-11T06:16:18.033Z,56.33
2018-11-11T06:18:47.947Z,50.70
2018-11-11T06:21:18.067Z,50.87
2018-11-11T06:23:48.054Z,55.27
2018-11-11T06:26:18.088Z,57.10
2018-11-11T06:28:47.988Z,56.13
2018-11-11T06:31:18.049Z,53.17
2018-11-11T06:33:48.091Z,46.70
2018-11-11T06:36:18.043Z,51.70
2018-11-11T06:38:48.018Z,49.40
2018-11-11T06:41:18.138Z,51.77
2018-11-11T06:43:48.152Z,49.70
2018-11-11T06:46:18.017Z,49.83
2018-11-11T06:48:48.087Z,50.13
2018-11-11T06:51:18.113Z,53.10
2018-11-11T06:53:48.133Z,54.50
2018-11-11T06:56:18.170Z,53.47
2018-11-11T06:58:48.169Z,55.73
2018-11-11T07:01:18.152Z,56.10
2018-11-11T07:03:51.572Z,58.47
2018-11-11T07:06:21.903Z,54.37
2018-11-11T07:08:51.933Z,63.27
2018-11-11T07:11:21.947Z,59.93
2018-11-11T07:13:52.069Z,51.47
2018-11-11T07:16:22.109Z,50.47
2018-11-11T07:18:52.027Z,44.07
2018-11-11T07:21:21.982Z,44.93
2018-11-11T07:23:52.128Z,40.87
2018-11-11T07:26:22.135Z,41.20
2018-11-11T07:28:52.047Z,43.83
2018-11-11T07:31:22.141Z,44.67
2018-11-11T07:33:52.173Z,39.83
2018-11-11T07:36:22.127Z,40.93
2018-11-11T07:38:52.150Z,42.57
2018-11-11T07:41:22.221Z,42.20
2018-11-11T07:43:52.121Z,44.70
2018-11-11T07:46:22.040Z,46.80
2018-11-11T07:48:52.160Z,46.30
2018-11-11T07:51:22.142Z,47.27
2018-11-11T07:53:52.084Z,45.20
2018-11-11T07:56:22.067Z,41.87
2018-11-11T07:58:52.030Z,48.00
2018-11-11T08:01:22.058Z,52.20
2018-11-11T08:03:52.103Z,46.43
2018-11-11T08:06:22.035Z,48.03
2018-11-11T08:08:52.085Z,46.70
2018-11-11T08:11:32.750Z,48.50
2018-11-11T08:14:02.657Z,43.63
2018-11-11T08:16:32.722Z,44.60
2018-11-11T08:19:02.685Z,41.53
2018-11-11T08:21:32.729Z,50.17
2018-11-11T08:24:02.726Z,42.70
2018-11-11T08:26:32.535Z,49.27
2018-11-11T08:29:02.659Z,47.03
2018-11-11T08:31:32.805Z,43.10
2018-11-11T08:34:02.909Z,44.40
2018-11-11T08:36:32.998Z,47.90
2018-11-11T08:39:03.590Z,43.17
2018-11-11T08:41:33.713Z,44.87
2018-11-11T08:44:03.818Z,41.07
2018-11-11T08:46:33.970Z,40.97
2018-11-11T08:49:04.106Z,36.07
2018-11-11T08:51:34.191Z,34.77
2018-11-11T08:54:04.661Z,38.47
2018-11-11T08:56:35.060Z,33.80
2018-11-11T08:59:05.382Z,32.30
2018-11-11T09:01:35.435Z,28.83
2018-11-11T09:04:05.789Z,33.70
2018-11-11T09:06:35.885Z,27.27
2018-11-11T09:09:07.532Z,28.47
2018-11-11T09:11:37.706Z,27.73
2018-11-11T09:14:07.766Z,28.00
2018-11-11T09:16:37.913Z,24.37
2018-11-11T09:19:08.015Z,25.53
2018-11-11T09:21:38.325Z,25.83
2018-11-11T09:24:08.262Z,23.40
2018-11-11T09:26:38.341Z,22.87
2018-11-11T09:29:08.491Z,24.00
2018-11-11T09:31:38.544Z,20.27
2018-11-11T09:34:08.618Z,21.87
2018-11-11T09:36:38.676Z,17.50
2018-11-11T09:39:10.595Z,20.97
2018-11-11T09:41:40.702Z,17.87
2018-11-11T09:44:10.732Z,17.47
2018-11-11T09:46:40.847Z,17.13
2018-11-11T09:49:10.829Z,18.03
2018-11-11T09:51:40.883Z,18.63
2018-11-11T09:54:11.071Z,17.83
2018-11-11T09:56:41.158Z,17.13
2018-11-11T09:59:11.179Z,17.73
2018-11-11T10:01:41.293Z,15.27
2018-11-11T10:04:15.545Z,16.90
2018-11-11T10:07:08.268Z,17.50
2018-11-11T10:09:51.224Z,15.77
2018-11-11T10:12:25.436Z,16.67
2018-11-11T10:15:02.774Z,16.47
2018-11-11T10:17:38.334Z,15.87
2018-11-11T10:20:14.814Z,15.63
2018-11-11T10:22:49.744Z,15.27
2018-11-11T10:25:25.447Z,16.40
2018-11-11T10:28:08.958Z,15.83
2018-11-11T10:30:42.865Z,14.27
2018-11-11T10:33:35.499Z,13.83
2018-11-11T10:36:10.071Z,14.17
2018-11-11T10:40:46.168Z,14.37
2018-11-11T10:43:25.940Z,13.67
2018-11-11T10:46:00.389Z,13.20
2018-11-11T10:48:33.351Z,13.23
2018-11-11T10:51:04.700Z,12.23
2018-11-11T10:53:34.758Z,12.87
2018-11-11T10:56:04.792Z,13.00
2018-11-11T10:58:34.827Z,12.07
2018-11-11T11:01:08.883Z,12.20
2018-11-11T11:03:39.001Z,10.23
2018-11-11T11:06:09.173Z,11.03
2018-11-11T11:08:43.071Z,12.40
2018-11-11T11:11:13.058Z,11.10
2018-11-11T11:13:43.072Z,10.70
2018-11-11T11:16:13.097Z,12.10
2018-11-11T11:18:43.192Z,10.77
2018-11-11T11:21:13.275Z,10.83
2018-11-11T11:23:43.411Z,9.63
2018-11-11T11:26:13.548Z,9.57
2018-11-11T11:28:43.725Z,10.83
2018-11-11T11:31:13.726Z,10.17
2018-11-11T11:33:43.748Z,9.33
2018-11-11T11:36:13.881Z,10.20
2018-11-11T11:38:43.949Z,10.03
2018-11-11T11:41:14.052Z,11.47
2018-11-11T11:43:44.044Z,10.63
2018-11-11T11:46:14.101Z,11.40
2018-11-11T11:48:44.332Z,8.57
2018-11-11T11:51:14.436Z,9.47
2018-11-11T11:53:44.441Z,9.57
2018-11-11T11:56:14.523Z,9.57
2018-11-11T11:58:44.619Z,9.03
2018-11-11T12:01:14.841Z,10.73
2018-11-11T12:03:44.923Z,8.07
2018-11-11T12:06:14.932Z,8.43
2018-11-11T12:08:45.069Z,8.87
2018-11-11T12:11:15.087Z,8.43
2018-11-11T12:13:45.187Z,6.67
2018-11-11T12:16:15.182Z,8.40
2018-11-11T12:18:45.321Z,7.93
2018-11-11T12:21:15.359Z,8.07
2018-11-11T12:23:45.461Z,7.83
2018-11-11T12:26:15.535Z,7.63
2018-11-11T12:28:45.717Z,7.00
2018-11-11T12:31:15.807Z,7.50
2018-11-11T12:33:45.869Z,6.83
2018-11-11T12:36:15.948Z,7.77
2018-11-11T12:38:45.892Z,7.17
2018-11-11T12:41:15.981Z,7.50
2018-11-11T12:43:46.107Z,6.90
2018-11-11T12:46:16.142Z,6.93
2018-11-11T12:48:46.217Z,6.90
2018-11-11T12:51:16.174Z,5.93
2018-11-11T12:53:46.357Z,6.37
2018-11-11T12:56:16.360Z,6.37
2018-11-11T12:58:46.620Z,5.60
2018-11-11T13:01:16.623Z,5.73
2018-11-11T13:03:46.674Z,5.63
2018-11-11T13:06:16.745Z,6.40
2018-11-11T13:08:46.739Z,5.97
2018-11-11T13:11:16.910Z,5.50
2018-11-11T13:13:46.871Z,5.43
2018-11-11T13:16:16.996Z,5.27
2018-11-11T13:18:47.193Z,5.73
2018-11-11T13:21:17.253Z,5.63
2018-11-11T13:23:47.369Z,5.80
2018-11-11T13:26:17.466Z,6.97
2018-11-11T13:28:47.456Z,7.73
2018-11-11T13:31:17.606Z,4.80
2018-11-11T13:33:47.703Z,6.07
2018-11-11T13:36:22.889Z,5.60
2018-11-11T13:38:59.132Z,6.73
2018-11-11T13:41:30.902Z,6.33
2018-11-11T13:44:07.140Z,6.93
2018-11-11T13:46:39.280Z,6.17
2018-11-11T13:49:15.983Z,6.70
2018-11-11T13:51:47.083Z,5.70
2018-11-11T13:54:17.147Z,6.27
2018-11-11T13:56:47.169Z,6.27
2018-11-11T13:59:17.216Z,6.20
2018-11-11T14:01:47.267Z,7.87
2018-11-11T14:04:17.260Z,7.57
2018-11-11T14:06:47.390Z,8.03
2018-11-11T14:09:17.465Z,6.77
2018-11-11T14:11:47.524Z,7.93
2018-11-11T14:14:17.593Z,6.40
2018-11-11T14:16:47.685Z,8.03
2018-11-11T14:19:17.975Z,6.50
2018-11-11T14:21:47.613Z,7.67
2018-11-11T14:24:17.649Z,7.40
2018-11-11T14:26:47.794Z,7.13
2018-11-11T14:29:17.566Z,6.87
2018-11-11T14:31:47.623Z,8.53
2018-11-11T14:34:17.606Z,9.47
2018-11-11T14:36:47.585Z,11.07
2018-11-11T14:39:17.615Z,9.80
2018-11-11T14:41:47.615Z,10.80
2018-11-11T14:44:17.757Z,10.60
2018-11-11T14:46:47.806Z,13.27
2018-11-11T14:49:17.676Z,10.30
2018-11-11T14:51:47.836Z,11.27
2018-11-11T14:54:17.843Z,9.43
2018-11-11T14:56:47.919Z,12.73
2018-11-11T14:59:17.972Z,11.27
2018-11-11T15:01:48.007Z,11.70
2018-11-11T15:04:18.034Z,12.20
2018-11-11T15:06:47.923Z,12.37
2018-11-11T15:09:17.962Z,14.03
2018-11-11T15:11:47.986Z,13.83
2018-11-11T15:14:18.087Z,13.47
2018-11-11T15:16:48.152Z,16.03
2018-11-11T15:19:18.345Z,15.10
2018-11-11T15:21:49.155Z,15.40
2018-11-11T15:24:19.200Z,16.90
2018-11-11T15:26:49.202Z,18.93
2018-11-11T15:29:19.268Z,16.90
2018-11-11T15:31:49.246Z,16.57
2018-11-11T15:34:19.394Z,16.10
2018-11-11T15:36:49.460Z,16.67
2018-11-11T15:39:19.478Z,15.93
2018-11-11T15:41:49.474Z,17.23
2018-11-11T15:44:19.390Z,15.77
2018-11-11T15:46:49.382Z,15.77
2018-11-11T15:49:19.370Z,17.10
2018-11-11T15:51:49.417Z,15.83
2018-11-11T15:54:19.323Z,15.60
2018-11-11T15:56:49.571Z,15.93
2018-11-11T15:59:19.637Z,15.93
2018-11-11T16:01:49.650Z,16.30
2018-11-11T16:04:19.741Z,15.57
2018-11-11T16:06:49.666Z,18.13
2018-11-11T16:09:19.613Z,18.43
2018-11-11T16:11:49.604Z,15.97
2018-11-11T16:14:19.727Z,15.53
2018-11-11T16:16:49.816Z,15.70
2018-11-11T16:19:19.919Z,17.67
2018-11-11T16:21:50.038Z,18.07
2018-11-11T16:24:20.079Z,19.90
2018-11-11T16:26:50.030Z,17.23
2018-11-11T16:29:20.079Z,15.77
2018-11-11T16:31:50.038Z,18.13
2018-11-11T16:34:20.148Z,17.70
2018-11-11T16:36:50.217Z,17.57
2018-11-11T16:39:20.336Z,18.97
2018-11-11T16:41:50.333Z,20.93
2018-11-11T16:44:20.385Z,20.33
2018-11-11T16:46:50.552Z,20.63
2018-11-11T16:49:20.594Z,19.90
2018-11-11T16:51:50.632Z,21.97
2018-11-11T16:54:20.644Z,25.60
2018-11-11T16:56:50.605Z,21.40
2018-11-11T16:59:20.564Z,24.07
2018-11-11T17:01:50.557Z,23.93
2018-11-11T17:04:20.613Z,26.30
2018-11-11T17:06:50.541Z,26.03
2018-11-11T17:09:20.602Z,26.57
2018-11-11T17:11:50.670Z,27.47
2018-11-11T17:14:21.142Z,26.03
2018-11-11T17:16:51.102Z,24.70
2018-11-11T17:19:21.111Z,27.33
2018-11-11T17:21:51.444Z,26.47
2018-11-11T17:24:21.396Z,25.23
2018-11-11T17:26:52.576Z,28.23
2018-11-11T17:29:22.692Z,27.07
2018-11-11T17:31:52.654Z,26.50
2018-11-11T17:34:23.721Z,25.60
2018-11-11T17:36:53.804Z,25.00
2018-11-11T17:39:23.827Z,26.00
2018-11-11T17:41:57.237Z,24.93
2018-11-11T17:44:27.838Z,25.30
2018-11-11T17:46:57.838Z,23.87
2018-11-11T17:49:27.802Z,25.60
2018-11-11T17:51:57.767Z,25.57
2018-11-11T17:54:27.803Z,28.33
2018-11-11T17:56:58.008Z,24.80
2018-11-11T17:59:29.053Z,24.87
2018-11-11T18:01:59.113Z,24.00
2018-11-11T18:04:29.059Z,25.20
2018-11-11T18:06:59.268Z,24.00
2018-11-11T18:09:29.324Z,25.00
2018-11-11T18:11:59.382Z,22.90
2018-11-11T18:14:29.699Z,23.60
2018-11-11T18:16:59.866Z,29.17
2018-11-11T18:19:29.856Z,27.50
2018-11-11T18:21:59.945Z,26.93
2018-11-11T18:24:29.970Z,27.73
2018-11-11T18:27:01.150Z,26.27
2018-11-11T18:29:31.175Z,25.30
2018-11-11T18:32:01.185Z,26.23
2018-11-11T18:34:31.310Z,26.57
2018-11-11T18:37:01.275Z,27.47
2018-11-11T18:39:31.243Z,27.83
2018-11-11T18:42:01.375Z,28.87
2018-11-11T18:44:31.404Z,28.90
2018-11-11T18:47:01.413Z,28.20
2018-11-11T18:49:32.520Z,27.37
2018-11-11T18:52:03.649Z,28.73
2018-11-11T18:54:34.538Z,27.10
2018-11-11T18:57:04.647Z,29.13
2018-11-11T18:59:34.619Z,29.37
2018-11-11T19:02:04.744Z,29.07
2018-11-11T19:04:34.628Z,30.73
2018-11-11T19:07:04.831Z,32.00
2018-11-11T19:09:34.810Z,29.97
2018-11-11T19:12:04.787Z,32.33
2018-11-11T19:14:34.869Z,28.67
2018-11-11T19:17:05.527Z,29.33
2018-11-11T19:19:35.448Z,28.30
2018-11-11T19:22:05.542Z,26.57
2018-11-11T19:24:35.672Z,28.43
2018-11-11T19:27:05.679Z,32.03
2018-11-11T19:29:35.766Z,35.17
2018-11-11T19:32:05.793Z,32.90
2018-11-11T19:34:35.833Z,33.27
2018-11-11T19:37:06.079Z,34.77
2018-11-11T19:39:36.325Z,37.23
2018-11-11T19:42:06.621Z,37.33
2018-11-11T19:44:36.653Z,36.07
2018-11-11T19:47:07.220Z,39.53
2018-11-11T19:49:37.242Z,36.17
2018-11-11T19:52:07.307Z,36.97
2018-11-11T19:54:37.427Z,36.07
2018-11-11T19:57:07.436Z,37.53
2018-11-11T19:59:37.527Z,38.70
2018-11-11T20:02:08.033Z,36.20
2018-11-11T20:04:38.037Z,36.73
2018-11-11T20:07:08.147Z,38.10
2018-11-11T20:09:38.705Z,39.43
2018-11-11T20:12:08.755Z,37.10
2018-11-11T20:14:43.160Z,35.83
2018-11-11T20:17:13.220Z,37.50
2018-11-11T20:19:43.241Z,40.50
2018-11-11T20:22:13.297Z,40.07
2018-11-11T20:24:43.445Z,34.43
2018-11-11T20:27:13.403Z,35.83
2018-11-11T20:29:43.358Z,35.73
2018-11-11T20:32:13.016Z,35.93
2018-11-11T20:34:43.436Z,34.40
2018-11-11T20:37:13.687Z,37.50
2018-11-11T20:39:43.803Z,36.30
2018-11-11T20:42:13.829Z,37.40
2018-11-11T20:44:43.918Z,38.10
2018-11-11T20:47:14.094Z,36.93
2018-11-11T20:49:44.242Z,38.40
2018-11-11T20:52:14.639Z,37.30
2018-11-11T20:54:44.808Z,39.80
2018-11-11T20:57:14.928Z,41.33
2018-11-11T20:59:45.064Z,39.20
2018-11-11T21:02:15.140Z,35.83
2018-11-11T21:04:45.211Z,37.43
2018-11-11T21:07:15.295Z,37.00
2018-11-11T21:09:45.310Z,37.83
2018-11-11T21:12:15.369Z,38.23
2018-11-11T21:14:45.497Z,38.10
2018-11-11T21:17:15.688Z,40.17
2018-11-11T21:19:45.745Z,39.37
2018-11-11T21:22:16.319Z,38.33
2018-11-11T21:24:46.411Z,39.53
2018-11-11T21:27:16.670Z,33.00
2018-11-11T21:29:46.809Z,38.67
2018-11-11T21:32:16.922Z,37.20
2018-11-11T21:34:47.059Z,36.73
2018-11-11T21:37:17.170Z,39.30
2018-11-11T21:39:47.121Z,38.67
2018-11-11T21:42:17.115Z,34.37
2018-11-11T21:44:47.207Z,35.30
2018-11-11T21:47:17.232Z,38.03
2018-11-11T21:49:47.258Z,35.67
2018-11-11T21:52:17.394Z,36.73
2018-11-11T21:54:47.456Z,38.57
2018-11-11T21:57:17.642Z,32.27
2018-11-11T21:59:47.615Z,40.83
2018-11-11T22:02:17.735Z,34.97
2018-11-11T22:04:47.858Z,37.10
2018-11-11T22:07:18.041Z,39.83
2018-11-11T22:09:48.118Z,35.50
2018-11-11T22:12:18.111Z,34.07
2018-11-11T22:14:48.346Z,36.50
2018-11-11T22:17:18.467Z,33.47
2018-11-11T22:19:48.505Z,35.83
2018-11-11T22:22:18.609Z,36.07
2018-11-11T22:24:48.628Z,31.73
2018-11-11T22:27:18.852Z,31.27
2018-11-11T22:29:48.923Z,32.83
2018-11-11T22:32:19.089Z,33.47
2018-11-11T22:34:49.232Z,32.07
2018-11-11T22:37:19.340Z,30.87
2018-11-11T22:39:49.350Z,31.90
2018-11-11T22:42:19.430Z,33.20
2018-11-11T22:44:49.428Z,32.43
2018-11-11T22:47:19.545Z,31.03
2018-11-11T22:49:49.624Z,30.83
2018-11-11T22:52:19.674Z,32.77
2018-11-11T22:54:49.757Z,30.40
2018-11-11T22:57:19.787Z,32.77
2018-11-11T22:59:49.958Z,29.90
2018-11-11T23:02:20.124Z,31.30
2018-11-11T23:04:50.217Z,31.40
2018-11-11T23:07:20.269Z,32.47
2018-11-11T23:09:50.345Z,31.30
2018-11-11T23:12:20.425Z,32.73
2018-11-11T23:14:50.600Z,29.00
2018-11-11T23:17:20.650Z,30.00
2018-11-11T23:19:51.119Z,29.07
2018-11-11T23:22:21.253Z,31.77
2018-11-11T23:24:51.255Z,29.97
2018-11-11T23:27:21.292Z,30.37
2018-11-11T23:29:51.336Z,28.13
2018-11-11T23:32:21.460Z,29.93
2018-11-11T23:34:51.651Z,27.10
2018-11-11T23:37:21.625Z,28.87
2018-11-11T23:39:51.737Z,27.57
2018-11-11T23:42:21.688Z,30.17
2018-11-11T23:44:51.821Z,26.97
2018-11-11T23:47:21.821Z,24.80
2018-11-11T23:49:51.963Z,26.03
2018-11-11T23:52:22.121Z,26.63
2018-11-11T23:54:52.205Z,25.23
2018-11-11T23:57:22.299Z,27.67
2018-11-11T23:59:52.301Z,27.50
